createdAt,value
2023-05-02T00:01:09.685Z,67.62
2023-05-02T00:03:22.862Z,67.57
2023-05-02T00:05:35.488Z,67.70
2023-05-02T00:07:48.302Z,67.44
2023-05-02T00:10:03.083Z,67.55
2023-05-02T00:12:15.869Z,67.51
2023-05-02T00:14:28.406Z,67.48
2023-05-02T00:16:41.232Z,67.41
2023-05-02T00:18:53.915Z,67.52
2023-05-02T00:21:07.160Z,67.66
2023-05-02T00:23:19.725Z,67.47
2023-05-02T00:25:32.474Z,67.79
2023-05-02T00:27:46.803Z,67.92
2023-05-02T00:30:00.651Z,67.89
2023-05-02T00:32:13.578Z,67.92
2023-05-02T00:34:31.055Z,67.90
2023-05-02T00:36:43.618Z,67.87
2023-05-02T00:38:56.159Z,67.93
2023-05-02T00:41:08.832Z,67.82
2023-05-02T00:43:21.480Z,67.92
2023-05-02T00:45:34.020Z,68.10
2023-05-02T00:47:46.655Z,68.10
2023-05-02T00:50:01.160Z,68.20
2023-05-02T00:52:14.271Z,68.24
2023-05-02T00:54:27.054Z,68.41
2023-05-02T00:56:40.070Z,68.13
2023-05-02T00:58:53.759Z,68.25
2023-05-02T01:01:28.003Z,68.29
2023-05-02T01:04:15.210Z,68.41
2023-05-02T01:06:46.315Z,68.38
2023-05-02T01:09:23.174Z,68.30
2023-05-02T01:11:48.304Z,68.39
2023-05-02T01:14:05.958Z,68.75
2023-05-02T01:16:20.144Z,68.76
2023-05-02T01:18:36.871Z,69.26
2023-05-02T01:20:57.241Z,69.68
2023-05-02T01:23:30.791Z,70.08
2023-05-02T01:25:56.708Z,70.00
2023-05-02T01:28:15.100Z,70.58
2023-05-02T01:30:30.869Z,70.20
2023-05-02T01:32:46.599Z,70.82
2023-05-02T01:35:01.830Z,71.32
2023-05-02T01:37:17.735Z,71.47
2023-05-02T01:39:31.011Z,72.17
2023-05-02T01:41:45.081Z,72.78
2023-05-02T01:43:59.411Z,72.80
2023-05-02T01:46:15.127Z,73.38
2023-05-02T01:48:28.535Z,73.91
2023-05-02T01:50:43.830Z,74.54
2023-05-02T01:52:58.779Z,74.75
2023-05-02T01:55:14.291Z,75.44
2023-05-02T01:57:27.462Z,75.64
2023-05-02T01:59:41.068Z,76.25
2023-05-02T02:01:55.762Z,76.57
2023-05-02T02:04:11.286Z,76.94
2023-05-02T02:06:24.822Z,76.85
2023-05-02T02:08:37.519Z,77.21
2023-05-02T02:10:59.551Z,77.18
2023-05-02T02:13:27.664Z,77.30
2023-05-02T02:15:42.198Z,77.50
2023-05-02T02:18:07.683Z,77.88
2023-05-02T02:20:21.896Z,78.30
2023-05-02T02:22:38.833Z,78.51
2023-05-02T02:24:54.413Z,78.21
2023-05-02T02:27:07.232Z,78.17
2023-05-02T02:29:19.791Z,78.44
2023-05-02T02:31:36.085Z,78.11
2023-05-02T02:33:48.808Z,78.08
2023-05-02T02:36:24.998Z,78.12
2023-05-02T02:38:44.945Z,77.79
2023-05-02T02:41:06.780Z,77.94
2023-05-02T02:43:48.094Z,77.55
2023-05-02T02:46:19.526Z,77.52
2023-05-02T02:48:48.781Z,77.56
2023-05-02T02:51:15.945Z,77.67
2023-05-02T02:53:46.981Z,77.74
2023-05-02T02:56:06.636Z,77.88
2023-05-02T02:58:37.069Z,77.67
2023-05-02T03:00:50.386Z,77.65
2023-05-02T03:03:03.439Z,77.62
2023-05-02T03:05:16.922Z,77.38
2023-05-02T03:07:29.760Z,77.30
2023-05-02T03:09:47.063Z,77.07
2023-05-02T03:11:59.643Z,76.79
2023-05-02T03:14:12.378Z,76.46
2023-05-02T03:16:35.300Z,76.20
2023-05-02T03:18:47.964Z,75.77
2023-05-02T03:21:01.020Z,75.38
2023-05-02T03:23:13.569Z,75.06
2023-05-02T03:25:26.317Z,74.74
2023-05-02T03:27:38.902Z,74.48
2023-05-02T03:29:51.534Z,73.83
2023-05-02T03:32:04.313Z,73.95
2023-05-02T03:34:17.072Z,73.86
2023-05-02T03:36:29.628Z,74.00
2023-05-02T03:38:42.191Z,73.56
2023-05-02T03:40:57.288Z,73.75
2023-05-02T03:43:09.887Z,73.25
2023-05-02T03:45:22.452Z,72.55
2023-05-02T03:47:35.146Z,72.44
2023-05-02T03:49:47.772Z,71.99
2023-05-02T03:52:00.888Z,72.01
2023-05-02T03:54:13.473Z,72.18
2023-05-02T03:56:26.052Z,72.30
2023-05-02T03:58:38.643Z,72.04
2023-05-02T04:00:53.510Z,72.56
2023-05-02T04:03:07.230Z,72.60
2023-05-02T04:05:19.909Z,73.07
2023-05-02T04:07:32.427Z,73.31
2023-05-02T04:09:45.793Z,73.38
2023-05-02T04:11:58.438Z,73.81
2023-05-02T04:14:11.033Z,73.80
2023-05-02T04:16:23.795Z,74.02
2023-05-02T04:18:36.481Z,74.63
2023-05-02T04:20:50.455Z,75.42
2023-05-02T04:23:03.078Z,76.01
2023-05-02T04:25:16.165Z,77.23
2023-05-02T04:27:28.679Z,77.31
2023-05-02T04:29:41.238Z,77.93
2023-05-02T04:31:53.950Z,78.35
2023-05-02T04:34:07.034Z,78.74
2023-05-02T04:36:19.719Z,79.26
2023-05-02T04:38:32.348Z,79.35
2023-05-02T04:40:45.930Z,79.85
2023-05-02T04:42:58.492Z,80.37
2023-05-02T04:45:11.234Z,80.53
2023-05-02T04:47:23.874Z,80.77
2023-05-02T04:49:36.553Z,81.27
2023-05-02T04:51:49.152Z,81.54
2023-05-02T04:54:01.767Z,81.85
2023-05-02T04:56:14.371Z,82.44
2023-05-02T04:58:27.130Z,82.84
2023-05-02T05:00:39.713Z,83.14
2023-05-02T05:02:52.933Z,83.62
2023-05-02T05:05:06.094Z,84.10
2023-05-02T05:07:18.628Z,84.54
2023-05-02T05:09:31.179Z,85.07
2023-05-02T05:11:45.380Z,85.37
2023-05-02T05:13:58.370Z,85.30
2023-05-02T05:16:10.955Z,85.98
2023-05-02T05:18:23.802Z,85.84
2023-05-02T05:20:36.354Z,85.91
2023-05-02T05:22:48.949Z,86.33
2023-05-02T05:25:01.619Z,86.25
2023-05-02T05:27:14.139Z,86.47
2023-05-02T05:29:26.735Z,86.81
2023-05-02T05:31:39.304Z,87.08
2023-05-02T05:33:51.886Z,87.40
2023-05-02T05:36:09.124Z,87.88
2023-05-02T05:38:21.701Z,88.33
2023-05-02T05:40:34.216Z,88.58
2023-05-02T05:42:46.808Z,88.26
2023-05-02T05:44:59.297Z,88.57
2023-05-02T05:47:12.198Z,88.58
2023-05-02T05:49:25.050Z,88.60
2023-05-02T05:51:37.582Z,88.51
2023-05-02T05:53:50.114Z,88.14
2023-05-02T05:56:13.184Z,87.83
2023-05-02T05:58:25.944Z,87.81
2023-05-02T06:00:39.795Z,87.22
2023-05-02T06:02:52.425Z,87.18
2023-05-02T06:05:05.574Z,86.95
2023-05-02T06:07:18.151Z,86.49
2023-05-02T06:09:30.801Z,85.95
2023-05-02T06:11:43.295Z,85.93
2023-05-02T06:13:55.959Z,85.96
2023-05-02T06:16:08.508Z,85.11
2023-05-02T06:18:21.591Z,84.78
2023-05-02T06:20:36.649Z,84.56
2023-05-02T06:22:49.183Z,83.97
2023-05-02T06:25:02.005Z,83.73
2023-05-02T06:27:14.517Z,83.48
2023-05-02T06:29:27.042Z,83.28
2023-05-02T06:31:39.543Z,82.63
2023-05-02T06:33:52.506Z,81.91
2023-05-02T06:36:05.180Z,81.98
2023-05-02T06:38:18.532Z,81.79
2023-05-02T06:40:31.264Z,81.28
2023-05-02T06:42:43.787Z,80.76
2023-05-02T06:44:56.524Z,80.22
2023-05-02T06:47:09.115Z,79.43
2023-05-02T06:49:22.494Z,78.36
2023-05-02T06:51:35.027Z,77.34
2023-05-02T06:53:47.648Z,76.78
2023-05-02T06:56:00.247Z,75.82
2023-05-02T06:58:12.921Z,75.33
2023-05-02T07:00:25.778Z,74.70
2023-05-02T07:02:38.500Z,74.03
2023-05-02T07:04:51.110Z,73.45
2023-05-02T07:07:04.094Z,73.19
2023-05-02T07:09:16.851Z,72.86
2023-05-02T07:11:29.379Z,72.68
2023-05-02T07:13:41.906Z,71.16
2023-05-02T07:15:54.666Z,70.50
2023-05-02T07:18:07.269Z,69.81
2023-05-02T07:20:20.127Z,69.69
2023-05-02T07:22:32.706Z,68.21
2023-05-02T07:24:45.344Z,68.59
2023-05-02T07:26:58.066Z,68.70
2023-05-02T07:29:10.948Z,68.37
2023-05-02T07:31:23.696Z,67.44
2023-05-02T07:33:36.475Z,66.72
2023-05-02T07:35:49.626Z,66.49
2023-05-02T07:38:02.139Z,66.52
2023-05-02T07:40:14.939Z,66.25
2023-05-02T07:42:31.140Z,65.50
2023-05-02T07:44:43.691Z,65.20
2023-05-02T07:46:56.276Z,64.53
2023-05-02T07:49:08.884Z,64.47
2023-05-02T07:51:21.668Z,64.14
2023-05-02T07:53:34.595Z,63.20
2023-05-02T07:55:47.526Z,62.88
2023-05-02T07:58:00.557Z,61.74
2023-05-02T08:00:13.940Z,61.61
2023-05-02T08:02:27.508Z,61.66
2023-05-02T08:04:41.058Z,61.20
2023-05-02T08:06:54.888Z,60.38
2023-05-02T08:09:07.665Z,60.58
2023-05-02T08:11:22.574Z,60.68
2023-05-02T08:13:36.374Z,58.97
2023-05-02T08:15:48.958Z,56.51
2023-05-02T08:18:01.649Z,55.72
2023-05-02T08:20:14.170Z,55.71
2023-05-02T08:22:26.734Z,55.93
2023-05-02T08:24:39.361Z,55.85
2023-05-02T08:26:51.900Z,55.77
2023-05-02T08:29:04.787Z,56.11
2023-05-02T08:31:17.619Z,55.44
2023-05-02T08:33:30.173Z,54.46
2023-05-02T08:35:42.929Z,53.93
2023-05-02T08:37:56.103Z,54.02
2023-05-02T08:40:12.063Z,54.25
2023-05-02T08:42:25.784Z,53.73
2023-05-02T08:44:38.385Z,53.88
2023-05-02T08:46:52.378Z,54.54
2023-05-02T08:49:05.523Z,54.51
2023-05-02T08:53:34.975Z,54.75
2023-05-02T08:55:49.147Z,54.22
2023-05-02T08:58:03.806Z,54.44
2023-05-02T09:00:17.598Z,54.00
2023-05-02T09:02:55.767Z,54.45
2023-05-02T09:05:12.230Z,54.33
2023-05-02T09:07:24.800Z,54.03
2023-05-02T09:09:37.662Z,54.56
2023-05-02T09:11:51.736Z,54.53
2023-05-02T09:14:14.724Z,54.32
2023-05-02T09:16:28.461Z,54.72
2023-05-02T09:18:47.201Z,53.88
2023-05-02T09:21:01.235Z,53.68
2023-05-02T09:23:14.226Z,53.69
2023-05-02T09:25:41.087Z,54.06
2023-05-02T09:27:55.882Z,54.09
2023-05-02T09:30:25.502Z,54.31
2023-05-02T09:32:44.981Z,54.10
2023-05-02T09:35:07.584Z,53.93
2023-05-02T09:37:35.966Z,53.81
2023-05-02T09:40:06.743Z,53.91
2023-05-02T09:42:31.219Z,53.06
2023-05-02T09:44:43.986Z,52.82
2023-05-02T09:47:02.129Z,52.85
2023-05-02T09:49:18.671Z,53.11
2023-05-02T09:51:31.326Z,52.90
2023-05-02T09:53:45.155Z,52.41
2023-05-02T09:56:04.634Z,51.94
2023-05-02T09:58:22.766Z,51.57
2023-05-02T10:00:39.906Z,51.15
2023-05-02T10:02:52.485Z,50.29
2023-05-02T10:05:10.159Z,49.61
2023-05-02T10:07:23.078Z,49.13
2023-05-02T10:09:36.322Z,48.66
2023-05-02T10:11:56.561Z,48.46
2023-05-02T10:14:10.361Z,48.18
2023-05-02T10:16:29.052Z,47.83
2023-05-02T10:19:07.423Z,47.58
2023-05-02T10:21:30.038Z,47.08
2023-05-02T10:23:44.159Z,45.76
2023-05-02T10:26:00.283Z,45.26
2023-05-02T10:28:13.183Z,45.00
2023-05-02T10:30:26.533Z,44.52
2023-05-02T10:32:40.451Z,44.01
2023-05-02T10:34:56.511Z,44.15
2023-05-02T10:37:09.088Z,43.68
2023-05-02T10:39:24.460Z,43.36
2023-05-02T10:41:39.812Z,43.66
2023-05-02T10:43:52.845Z,42.93
2023-05-02T10:46:35.900Z,42.76
2023-05-02T10:49:07.893Z,41.98
2023-05-02T10:51:29.763Z,41.44
2023-05-02T10:53:44.827Z,42.01
2023-05-02T10:56:17.442Z,42.03
2023-05-02T10:58:30.018Z,41.07
2023-05-02T11:00:42.598Z,40.17
2023-05-02T11:02:55.692Z,38.48
2023-05-02T11:05:08.415Z,37.85
2023-05-02T11:07:21.028Z,38.36
2023-05-02T11:09:33.743Z,38.25
2023-05-02T11:11:48.179Z,37.98
2023-05-02T11:14:00.793Z,38.30
2023-05-02T11:16:14.098Z,38.67
2023-05-02T11:18:26.923Z,38.22
2023-05-02T11:20:41.183Z,38.11
2023-05-02T11:22:55.779Z,38.46
2023-05-02T11:25:30.826Z,38.65
2023-05-02T11:27:45.546Z,38.94
2023-05-02T11:30:06.669Z,39.76
2023-05-02T11:32:19.315Z,39.93
2023-05-02T11:34:41.193Z,39.65
2023-05-02T11:36:53.854Z,39.56
2023-05-02T11:39:19.252Z,39.34
2023-05-02T11:41:41.666Z,39.35
2023-05-02T11:44:03.526Z,40.12
2023-05-02T11:46:17.461Z,40.61
2023-05-02T11:48:30.890Z,41.33
2023-05-02T11:50:49.554Z,41.95
2023-05-02T11:53:03.101Z,42.06
2023-05-02T11:55:15.888Z,41.99
2023-05-02T11:57:28.553Z,41.28
2023-05-02T11:59:55.252Z,41.61
2023-05-02T12:02:07.896Z,41.71
2023-05-02T12:04:23.912Z,41.28
2023-05-02T12:06:36.545Z,40.20
2023-05-02T12:08:49.443Z,40.10
2023-05-02T12:11:02.156Z,39.33
2023-05-02T12:13:15.066Z,39.50
2023-05-02T12:15:27.780Z,39.28
2023-05-02T12:17:42.829Z,39.18
2023-05-02T12:19:55.702Z,40.01
2023-05-02T12:22:09.826Z,43.45
2023-05-02T12:24:22.567Z,48.54
2023-05-02T12:26:35.128Z,52.20
2023-05-02T12:28:49.570Z,55.49
2023-05-02T12:31:11.028Z,57.71
2023-05-02T12:33:23.768Z,59.44
2023-05-02T12:35:36.622Z,61.60
2023-05-02T12:37:49.331Z,63.92
2023-05-02T12:40:02.214Z,65.49
2023-05-02T12:42:16.818Z,67.09
2023-05-02T12:44:43.261Z,69.02
2023-05-02T12:47:00.921Z,69.68
2023-05-02T12:49:13.572Z,70.36
2023-05-02T12:51:28.501Z,72.32
2023-05-02T12:53:45.791Z,74.67
2023-05-02T12:56:03.711Z,76.61
2023-05-02T12:58:17.096Z,77.87
2023-05-02T13:00:36.606Z,78.74
2023-05-02T13:02:49.508Z,79.47
2023-05-02T13:05:02.086Z,80.24
2023-05-02T13:07:14.632Z,80.82
2023-05-02T13:09:27.172Z,81.48
2023-05-02T13:11:39.788Z,80.85
2023-05-02T13:13:52.634Z,82.56
2023-05-02T13:16:05.579Z,81.87
2023-05-02T13:18:18.201Z,82.13
2023-05-02T13:20:31.239Z,82.27
2023-05-02T13:22:43.802Z,82.02
2023-05-02T13:24:56.322Z,81.75
2023-05-02T13:27:08.859Z,81.07
2023-05-02T13:29:21.498Z,80.29
2023-05-02T13:31:34.008Z,78.67
2023-05-02T13:33:46.544Z,77.38
2023-05-02T13:35:59.408Z,77.51
2023-05-02T13:38:12.015Z,76.15
2023-05-02T13:40:24.642Z,74.91
2023-05-02T13:42:37.185Z,71.77
2023-05-02T13:44:50.116Z,71.52
2023-05-02T13:47:02.753Z,71.29
2023-05-02T13:49:15.294Z,70.03
2023-05-02T13:51:27.964Z,68.67
2023-05-02T13:53:40.467Z,68.46
2023-05-02T13:55:53.024Z,68.27
2023-05-02T13:58:05.805Z,67.87
2023-05-02T14:00:18.560Z,66.76
2023-05-02T14:02:31.627Z,65.50
2023-05-02T14:04:44.319Z,65.34
2023-05-02T14:07:08.720Z,64.37
2023-05-02T14:09:21.332Z,64.53
2023-05-02T14:11:36.496Z,64.14
2023-05-02T14:13:49.010Z,62.24
2023-05-02T14:16:01.617Z,60.75
2023-05-02T14:18:14.310Z,60.77
2023-05-02T14:20:27.040Z,60.66
2023-05-02T14:22:39.547Z,60.73
2023-05-02T14:24:53.329Z,59.74
2023-05-02T14:27:07.663Z,59.32
2023-05-02T14:29:20.509Z,58.74
2023-05-02T14:31:33.190Z,58.20
2023-05-02T14:33:46.054Z,58.21
2023-05-02T14:35:58.541Z,58.38
2023-05-02T14:38:11.072Z,58.13
2023-05-02T14:40:23.615Z,57.87
2023-05-02T14:42:36.153Z,57.30
2023-05-02T14:44:48.699Z,57.56
2023-05-02T14:47:01.269Z,57.46
2023-05-02T14:49:13.796Z,57.94
2023-05-02T14:51:26.469Z,57.03
2023-05-02T14:53:39.601Z,57.26
2023-05-02T14:55:52.151Z,56.46
2023-05-02T14:58:08.937Z,56.21
2023-05-02T15:00:21.584Z,56.41
2023-05-02T15:02:34.600Z,57.05
2023-05-02T15:04:47.395Z,57.32
2023-05-02T15:07:01.041Z,57.85
2023-05-02T15:09:14.287Z,58.71
2023-05-02T15:11:26.781Z,58.96
2023-05-02T15:13:39.280Z,59.00
2023-05-02T15:15:53.746Z,59.02
2023-05-02T15:18:06.665Z,58.77
2023-05-02T15:20:19.586Z,58.62
2023-05-02T15:22:32.222Z,58.95
2023-05-02T15:24:44.750Z,59.15
2023-05-02T15:26:57.315Z,57.84
2023-05-02T15:29:09.834Z,57.64
2023-05-02T15:31:22.955Z,58.30
2023-05-02T15:33:35.519Z,59.07
2023-05-02T15:35:56.225Z,59.25
2023-05-02T15:38:09.077Z,59.59
2023-05-02T15:40:21.622Z,61.10
2023-05-02T15:42:37.265Z,61.97
2023-05-02T15:44:49.916Z,61.74
2023-05-02T15:47:02.993Z,60.87
2023-05-02T15:49:15.794Z,59.80
2023-05-02T15:51:28.363Z,59.07
2023-05-02T15:53:44.093Z,58.68
2023-05-02T15:55:56.940Z,59.71
2023-05-02T15:58:10.059Z,59.47
2023-05-02T16:00:22.693Z,59.40
2023-05-02T16:02:35.432Z,58.78
2023-05-02T16:04:47.987Z,58.61
2023-05-02T16:07:01.741Z,58.39
2023-05-02T16:09:14.462Z,57.50
2023-05-02T16:11:27.029Z,57.38
2023-05-02T16:13:40.371Z,57.65
2023-05-02T16:15:53.077Z,58.05
2023-05-02T16:18:05.939Z,58.26
2023-05-02T16:20:18.958Z,57.77
2023-05-02T16:22:31.479Z,57.35
2023-05-02T16:24:44.049Z,56.48
2023-05-02T16:26:56.586Z,55.70
2023-05-02T16:29:09.087Z,55.74
2023-05-02T16:31:21.667Z,55.06
2023-05-02T16:33:34.247Z,54.79
2023-05-02T16:35:47.199Z,55.39
2023-05-02T16:37:59.733Z,55.57
2023-05-02T16:40:12.888Z,55.67
2023-05-02T16:42:25.620Z,55.75
2023-05-02T16:44:38.172Z,55.60
2023-05-02T16:46:51.323Z,56.09
2023-05-02T16:49:03.887Z,57.01
2023-05-02T16:51:16.662Z,57.83
2023-05-02T16:53:30.494Z,58.33
2023-05-02T16:55:42.999Z,58.71
2023-05-02T16:57:55.687Z,58.96
2023-05-02T17:00:11.067Z,58.70
2023-05-02T17:02:24.733Z,58.46
2023-05-02T17:04:37.596Z,58.59
2023-05-02T17:06:50.301Z,58.42
2023-05-02T17:09:03.697Z,58.45
2023-05-02T17:11:17.408Z,58.43
2023-05-02T17:13:30.002Z,58.76
2023-05-02T17:15:42.678Z,58.78
2023-05-02T17:17:55.429Z,58.82
2023-05-02T17:20:08.247Z,59.20
2023-05-02T17:22:21.296Z,59.53
2023-05-02T17:24:34.434Z,59.90
2023-05-02T17:26:47.246Z,60.30
2023-05-02T17:28:59.718Z,60.59
2023-05-02T17:31:13.048Z,60.97
2023-05-02T17:33:27.368Z,61.22
2023-05-02T17:35:40.026Z,61.34
2023-05-02T17:37:52.605Z,61.70
2023-05-02T17:40:06.053Z,62.32
2023-05-02T17:42:18.619Z,62.82
2023-05-02T17:44:31.560Z,62.83
2023-05-02T17:46:44.320Z,63.23
2023-05-02T17:48:57.574Z,63.45
2023-05-02T17:51:11.768Z,64.01
2023-05-02T17:53:24.355Z,64.29
2023-05-02T17:55:38.369Z,64.70
2023-05-02T17:57:50.902Z,65.15
2023-05-02T18:00:07.339Z,65.29
2023-05-02T18:02:21.720Z,65.31
2023-05-02T18:04:34.443Z,65.78
2023-05-02T18:06:47.082Z,66.01
2023-05-02T18:08:59.678Z,66.12
2023-05-02T18:11:16.836Z,66.14
2023-05-02T18:13:29.456Z,66.37
2023-05-02T18:15:42.081Z,66.43
2023-05-02T18:17:56.845Z,66.60
2023-05-02T18:20:10.255Z,67.10
2023-05-02T18:22:23.075Z,66.95
2023-05-02T18:24:36.146Z,66.81
2023-05-02T18:26:49.074Z,66.78
2023-05-02T18:29:02.058Z,66.70
2023-05-02T18:31:16.410Z,66.69
2023-05-02T18:33:28.958Z,66.70
2023-05-02T18:35:46.971Z,66.78
2023-05-02T18:37:59.623Z,67.00
2023-05-02T18:40:12.897Z,67.12
2023-05-02T18:42:25.604Z,67.41
2023-05-02T18:44:38.138Z,67.53
2023-05-02T18:46:50.809Z,67.67
2023-05-02T18:49:03.473Z,67.75
2023-05-02T18:51:16.085Z,67.69
2023-05-02T18:53:28.670Z,67.47
2023-05-02T18:55:41.217Z,67.60
2023-05-02T18:57:53.851Z,67.90
2023-05-02T19:00:07.004Z,68.00
2023-05-02T19:02:19.521Z,67.99
2023-05-02T19:04:32.161Z,68.33
2023-05-02T19:06:45.053Z,68.85
2023-05-02T19:08:58.643Z,69.01
2023-05-02T19:11:11.196Z,69.13
2023-05-02T19:13:26.909Z,69.17
2023-05-02T19:15:39.490Z,69.77
2023-05-02T19:17:53.895Z,69.98
2023-05-02T19:20:07.275Z,70.18
2023-05-02T19:22:22.137Z,70.41
2023-05-02T19:24:36.000Z,70.84
2023-05-02T19:26:48.650Z,70.91
2023-05-02T19:29:01.332Z,71.20
2023-05-02T19:31:18.344Z,71.52
2023-05-02T19:33:31.018Z,72.09
2023-05-02T19:35:43.588Z,72.50
2023-05-02T19:37:56.119Z,72.77
2023-05-02T19:40:10.786Z,73.17
2023-05-02T19:42:23.373Z,73.23
2023-05-02T19:44:35.900Z,73.76
2023-05-02T19:46:48.454Z,73.69
2023-05-02T19:49:00.990Z,74.17
2023-05-02T19:51:13.892Z,74.13
2023-05-02T19:53:26.419Z,74.51
2023-05-02T19:55:39.037Z,74.26
2023-05-02T19:57:51.610Z,74.48
2023-05-02T20:00:05.155Z,74.67
2023-05-02T20:02:17.806Z,74.57
2023-05-02T20:04:30.471Z,74.55
2023-05-02T20:06:43.113Z,75.00
2023-05-02T20:08:55.785Z,75.10
2023-05-02T20:11:08.377Z,75.24
2023-05-02T20:13:21.019Z,75.09
2023-05-02T20:15:33.691Z,75.21
2023-05-02T20:17:47.504Z,75.05
2023-05-02T20:20:02.327Z,75.14
2023-05-02T20:22:15.039Z,75.28
2023-05-02T20:24:27.596Z,75.28
2023-05-02T20:26:40.236Z,75.08
2023-05-02T20:28:52.801Z,74.86
2023-05-02T20:31:05.449Z,74.77
2023-05-02T20:33:18.777Z,74.96
2023-05-02T20:35:31.629Z,74.93
2023-05-02T20:37:44.165Z,75.01
2023-05-02T20:39:56.883Z,75.04
2023-05-02T20:42:09.518Z,75.17
2023-05-02T20:44:22.490Z,75.30
2023-05-02T20:46:35.296Z,75.24
2023-05-02T20:48:48.025Z,75.07
2023-05-02T20:51:00.608Z,75.27
2023-05-02T20:53:13.144Z,75.45
2023-05-02T20:55:25.828Z,75.47
2023-05-02T20:57:38.731Z,75.56
2023-05-02T20:59:51.322Z,75.82
2023-05-02T21:02:05.544Z,76.01
2023-05-02T21:04:18.130Z,76.33
2023-05-02T21:06:33.614Z,76.15
2023-05-02T21:08:46.491Z,76.17
2023-05-02T21:10:58.999Z,76.31
2023-05-02T21:13:12.038Z,76.41
2023-05-02T21:15:24.622Z,76.54
2023-05-02T21:17:39.089Z,76.69
2023-05-02T21:19:53.890Z,76.50
2023-05-02T21:22:06.460Z,76.62
2023-05-02T21:24:19.003Z,77.01
2023-05-02T21:26:31.637Z,77.00
2023-05-02T21:28:44.273Z,77.23
2023-05-02T21:30:56.770Z,76.88
2023-05-02T21:33:09.697Z,76.91
2023-05-02T21:35:22.304Z,77.16
2023-05-02T21:37:34.978Z,77.09
2023-05-02T21:39:47.647Z,77.30
2023-05-02T21:42:01.444Z,76.90
2023-05-02T21:44:14.295Z,77.20
2023-05-02T21:46:26.913Z,77.53
2023-05-02T21:48:39.703Z,77.26
2023-05-02T21:50:52.364Z,77.11
2023-05-02T21:53:04.893Z,77.48
2023-05-02T21:55:17.451Z,77.58
2023-05-02T21:57:29.975Z,77.63
2023-05-02T21:59:43.078Z,77.78
2023-05-02T22:01:55.688Z,77.94
2023-05-02T22:04:08.380Z,78.21
2023-05-02T22:06:21.138Z,78.40
2023-05-02T22:08:33.732Z,78.19
2023-05-02T22:10:46.606Z,78.52
2023-05-02T22:12:59.142Z,78.75
2023-05-02T22:15:12.826Z,78.78
2023-05-02T22:17:25.492Z,78.82
2023-05-02T22:19:38.675Z,78.76
2023-05-02T22:21:51.643Z,78.82
2023-05-02T22:24:04.535Z,78.89
2023-05-02T22:26:17.133Z,79.07
2023-05-02T22:28:29.680Z,78.93
2023-05-02T22:30:42.995Z,78.88
2023-05-02T22:32:55.823Z,79.04
2023-05-02T22:35:09.052Z,79.25
2023-05-02T22:37:21.781Z,79.27
2023-05-02T22:39:34.452Z,79.40
2023-05-02T22:41:47.045Z,79.48
2023-05-02T22:43:59.574Z,79.42
2023-05-02T22:46:12.118Z,79.90
2023-05-02T22:48:25.201Z,79.40
2023-05-02T22:50:38.529Z,79.25
2023-05-02T22:52:51.220Z,78.95
2023-05-02T22:55:09.365Z,79.16
2023-05-02T22:57:22.448Z,78.89
2023-05-02T22:59:35.018Z,79.32
2023-05-02T23:01:48.423Z,79.22
2023-05-02T23:04:01.375Z,79.51
2023-05-02T23:06:14.354Z,80.31
2023-05-02T23:08:26.993Z,80.35
2023-05-02T23:10:39.595Z,80.48
2023-05-02T23:12:52.208Z,80.85
2023-05-02T23:15:05.412Z,80.88
2023-05-02T23:17:17.991Z,81.06
2023-05-02T23:19:32.902Z,80.73
2023-05-02T23:21:45.847Z,80.67
2023-05-02T23:23:58.533Z,80.09
2023-05-02T23:26:11.391Z,79.68
2023-05-02T23:28:23.985Z,79.08
2023-05-02T23:30:38.262Z,78.83
2023-05-02T23:32:51.549Z,78.65
2023-05-02T23:35:05.769Z,78.07
2023-05-02T23:37:18.329Z,77.38
2023-05-02T23:39:30.975Z,77.04
2023-05-02T23:41:43.547Z,76.69
2023-05-02T23:43:56.110Z,76.24
2023-05-02T23:46:08.757Z,76.07
2023-05-02T23:48:21.450Z,75.81
2023-05-02T23:50:34.047Z,75.30
2023-05-02T23:52:46.624Z,75.02
2023-05-02T23:54:59.184Z,74.65
2023-05-02T23:57:11.963Z,74.73
2023-05-02T23:59:24.706Z,74.79
